createdAt,value
2022-12-12T00:00:10.542Z,97825.84
2022-12-12T00:02:40.800Z,97839.16
2022-12-12T00:05:10.230Z,97850.53
2022-12-12T00:07:37.741Z,97840.22
2022-12-12T00:10:05.651Z,97833.50
2022-12-12T00:12:32.723Z,97824.88
2022-12-12T00:15:00.362Z,97816.69
2022-12-12T00:17:27.950Z,97830.19
2022-12-12T00:19:55.381Z,97848.75
2022-12-12T00:22:22.715Z,97848.38
2022-12-12T00:24:50.226Z,97865.31
2022-12-12T00:27:17.542Z,97872.00
2022-12-12T00:29:44.706Z,97867.34
2022-12-12T00:32:11.960Z,97869.03
2022-12-12T00:34:39.127Z,97875.78
2022-12-12T00:37:06.317Z,97869.69
2022-12-12T00:39:33.301Z,97865.25
2022-12-12T00:42:01.022Z,97857.47
2022-12-12T00:44:28.094Z,97861.72
2022-12-12T00:46:55.127Z,97868.34
2022-12-12T00:49:22.340Z,97870.22
2022-12-12T00:51:49.894Z,97878.78
2022-12-12T00:54:17.056Z,97877.72
2022-12-12T00:56:44.232Z,97858.25
2022-12-12T00:59:11.776Z,97867.25
2022-12-12T01:01:38.908Z,97854.25
2022-12-12T01:04:06.017Z,97840.41
2022-12-12T01:06:35.731Z,97832.91
2022-12-12T01:09:03.010Z,97822.09
2022-12-12T01:11:30.303Z,97830.03
2022-12-12T01:13:57.353Z,97852.72
2022-12-12T01:16:25.225Z,97851.59
2022-12-12T01:18:52.580Z,97858.59
2022-12-12T01:21:20.681Z,97855.16
2022-12-12T01:23:48.519Z,97850.53
2022-12-12T01:26:19.260Z,97850.50
2022-12-12T01:28:46.717Z,97860.03
2022-12-12T01:31:14.441Z,97879.13
2022-12-12T01:33:46.323Z,97872.03
2022-12-12T01:36:16.914Z,97874.56
2022-12-12T01:38:46.465Z,97870.50
2022-12-12T01:41:15.040Z,97875.97
2022-12-12T01:43:42.729Z,97878.56
2022-12-12T01:46:33.463Z,97875.47
2022-12-12T01:49:09.845Z,97872.75
2022-12-12T01:51:42.237Z,97870.19
2022-12-12T01:54:18.131Z,97868.09
2022-12-12T01:56:48.408Z,97868.75
2022-12-12T01:59:19.460Z,97874.78
2022-12-12T02:01:47.981Z,97868.69
2022-12-12T02:04:17.770Z,97875.78
2022-12-12T02:06:51.436Z,97876.72
2022-12-12T02:09:20.912Z,97877.00
2022-12-12T02:11:56.473Z,97871.91
2022-12-12T02:14:36.835Z,97862.81
2022-12-12T02:17:20.166Z,97856.59
2022-12-12T02:20:23.421Z,97844.50
2022-12-12T02:23:12.045Z,97803.78
2022-12-12T02:26:08.214Z,97818.75
2022-12-12T02:28:47.168Z,97831.88
2022-12-12T02:31:26.233Z,97835.34
2022-12-12T02:34:00.018Z,97837.00
2022-12-12T02:37:05.444Z,97855.28
2022-12-12T02:39:44.612Z,97862.53
2022-12-12T02:42:41.092Z,97860.66
2022-12-12T02:45:17.065Z,97862.28
2022-12-12T02:47:52.876Z,97865.91
2022-12-12T02:50:26.011Z,97873.75
2022-12-12T02:52:53.161Z,97866.66
2022-12-12T02:55:20.786Z,97872.59
2022-12-12T02:57:48.961Z,97880.53
2022-12-12T03:00:20.353Z,97883.94
2022-12-12T03:02:50.517Z,97882.28
2022-12-12T03:05:36.351Z,97880.56
2022-12-12T03:08:14.465Z,97868.94
2022-12-12T03:10:48.104Z,97862.28
2022-12-12T03:13:30.378Z,97869.16
2022-12-12T03:16:13.664Z,97883.25
2022-12-12T03:18:52.638Z,97883.94
2022-12-12T03:21:31.952Z,97889.25
2022-12-12T03:24:11.354Z,97903.91
2022-12-12T03:26:52.431Z,97896.13
2022-12-12T03:29:26.181Z,97904.91
2022-12-12T03:31:56.362Z,97898.75
2022-12-12T03:34:31.097Z,97906.84
2022-12-12T03:37:09.458Z,97902.50
2022-12-12T03:39:40.596Z,97898.06
2022-12-12T03:42:20.210Z,97907.75
2022-12-12T03:44:55.735Z,97902.78
2022-12-12T03:47:48.589Z,97908.78
2022-12-12T03:50:42.532Z,97907.91
2022-12-12T03:53:16.228Z,97901.94
2022-12-12T03:55:52.095Z,97907.22
2022-12-12T03:58:35.051Z,97909.88
2022-12-12T04:01:08.647Z,97913.44
2022-12-12T04:04:09.646Z,97917.38
2022-12-12T04:06:46.086Z,97917.53
2022-12-12T04:09:35.206Z,97928.03
2022-12-12T04:12:37.526Z,97921.84
2022-12-12T04:15:17.874Z,97917.28
2022-12-12T04:17:51.130Z,97908.63
2022-12-12T04:21:01.422Z,97927.78
2022-12-12T04:23:49.559Z,97909.47
2022-12-12T04:26:39.815Z,97918.16
2022-12-12T04:29:14.971Z,97911.28
2022-12-12T04:31:57.413Z,97922.59
2022-12-12T04:34:34.516Z,97925.38
2022-12-12T04:37:06.402Z,97922.94
2022-12-12T04:39:37.184Z,97929.03
2022-12-12T04:42:06.145Z,97935.91
2022-12-12T04:44:35.277Z,97934.25
2022-12-12T04:47:04.167Z,97931.66
2022-12-12T04:49:33.871Z,97938.44
2022-12-12T04:52:08.810Z,97953.22
2022-12-12T04:54:50.730Z,97955.97
2022-12-12T04:57:26.524Z,97964.56
2022-12-12T04:59:54.259Z,97974.03
2022-12-12T05:02:34.495Z,97990.63
2022-12-12T05:05:12.433Z,97980.22
2022-12-12T05:07:43.435Z,97987.06
2022-12-12T05:10:15.000Z,97975.75
2022-12-12T05:12:48.983Z,97967.53
2022-12-12T05:15:18.857Z,97962.38
2022-12-12T05:17:58.512Z,97966.88
2022-12-12T05:20:25.826Z,97968.63
2022-12-12T05:22:52.972Z,97958.28
2022-12-12T05:25:22.241Z,97967.03
2022-12-12T05:27:49.277Z,97973.44
2022-12-12T05:30:16.963Z,97974.31
2022-12-12T05:32:44.704Z,97972.66
2022-12-12T05:35:16.213Z,97974.50
2022-12-12T05:37:48.245Z,97979.88
2022-12-12T05:40:20.119Z,97973.97
2022-12-12T05:42:48.998Z,97985.00
2022-12-12T05:45:18.152Z,97987.94
2022-12-12T05:47:47.279Z,97985.22
2022-12-12T05:50:15.183Z,97988.78
2022-12-12T05:52:43.928Z,97992.38
2022-12-12T05:55:14.877Z,97999.97
2022-12-12T05:57:46.105Z,98000.72
2022-12-12T06:00:14.659Z,98006.72
2022-12-12T06:02:43.368Z,98011.72
2022-12-12T06:05:11.195Z,98016.78
2022-12-12T06:07:39.806Z,98020.88
2022-12-12T06:10:08.345Z,98029.44
2022-12-12T06:12:38.189Z,98022.56
2022-12-12T06:15:07.578Z,98038.75
2022-12-12T06:17:38.728Z,98037.84
2022-12-12T06:20:07.538Z,98033.56
2022-12-12T06:22:36.693Z,98033.47
2022-12-12T06:25:05.265Z,98041.22
2022-12-12T06:27:33.300Z,98040.38
2022-12-12T06:30:01.532Z,98056.88
2022-12-12T06:32:30.571Z,98060.38
2022-12-12T06:34:59.431Z,98056.19
2022-12-12T06:37:28.490Z,98057.16
2022-12-12T06:39:56.648Z,98054.38
2022-12-12T06:42:25.853Z,98045.19
2022-12-12T06:44:53.623Z,98054.50
2022-12-12T06:47:21.165Z,98058.19
2022-12-12T06:49:49.207Z,98074.59
2022-12-12T06:52:17.108Z,98066.16
2022-12-12T06:54:44.467Z,98078.25
2022-12-12T06:57:13.203Z,98083.31
2022-12-12T06:59:40.822Z,98086.44
2022-12-12T07:02:11.526Z,98085.47
2022-12-12T07:04:39.495Z,98081.59
2022-12-12T07:07:07.299Z,98096.34
2022-12-12T07:09:36.928Z,98081.38
2022-12-12T07:12:05.471Z,98091.66
2022-12-12T07:14:33.272Z,98085.28
2022-12-12T07:17:01.258Z,98084.25
2022-12-12T07:19:29.585Z,98091.16
2022-12-12T07:21:57.330Z,98087.56
2022-12-12T10:00:18.153Z,98247.97
2022-12-12T10:02:55.332Z,98253.72
2022-12-12T10:05:27.299Z,98249.75
2022-12-12T10:08:01.071Z,98244.06
2022-12-12T10:10:39.132Z,98235.91
2022-12-12T10:13:19.131Z,98238.00
2022-12-12T10:16:09.297Z,98249.59
2022-12-12T10:19:03.417Z,98259.59
2022-12-12T10:21:33.376Z,98248.97
2022-12-12T10:24:25.399Z,98249.63
2022-12-12T10:26:54.828Z,98258.75
2022-12-12T10:29:26.120Z,98258.56
2022-12-12T10:32:23.589Z,98265.09
2022-12-12T10:38:21.488Z,98268.34
2022-12-12T10:40:57.102Z,98272.47
2022-12-12T10:43:34.538Z,98268.84
2022-12-12T10:46:17.879Z,98278.09
2022-12-12T10:48:47.362Z,98278.25
2022-12-12T10:51:18.026Z,98285.19
2022-12-12T10:57:20.178Z,98287.81
2022-12-12T10:59:48.928Z,98286.41
2022-12-12T11:05:25.258Z,98288.50
2022-12-12T11:08:22.836Z,98295.25
2022-12-12T11:11:42.280Z,98305.75
2022-12-12T11:14:27.435Z,98306.00
2022-12-12T11:16:54.583Z,98309.28
2022-12-12T11:19:24.090Z,98312.03
2022-12-12T11:21:53.615Z,98316.22
2022-12-12T11:24:29.947Z,98320.25
2022-12-12T11:26:59.945Z,98320.38
2022-12-12T11:29:48.764Z,98333.47
2022-12-12T11:32:29.045Z,98328.16
2022-12-12T11:35:02.049Z,98327.06
2022-12-12T11:37:46.863Z,98334.97
2022-12-12T11:40:33.201Z,98328.81
2022-12-12T11:43:19.164Z,98331.34
2022-12-12T11:46:19.369Z,98346.19
2022-12-12T11:48:52.610Z,98348.06
2022-12-12T11:51:38.120Z,98360.47
2022-12-12T11:54:15.485Z,98349.59
2022-12-12T11:56:54.108Z,98360.63
2022-12-12T11:59:33.176Z,98354.75
2022-12-12T12:02:41.201Z,98368.50
2022-12-12T12:05:46.104Z,98358.28
2022-12-12T12:08:15.557Z,98343.63
2022-12-12T12:11:10.699Z,98351.44
2022-12-12T12:13:41.059Z,98349.50
2022-12-12T12:16:20.528Z,98348.69
2022-12-12T12:18:51.184Z,98357.38
2022-12-12T12:21:24.343Z,98359.97
2022-12-12T12:24:13.366Z,98348.56
2022-12-12T12:27:01.523Z,98349.47
2022-12-12T12:29:45.473Z,98348.75
2022-12-12T12:33:00.153Z,98342.59
2022-12-12T12:35:42.310Z,98351.63
2022-12-12T12:38:27.426Z,98354.44
2022-12-12T12:41:14.334Z,98358.91
2022-12-12T12:44:19.952Z,98359.72
2022-12-12T12:47:16.645Z,98348.53
2022-12-12T12:50:07.129Z,98357.22
2022-12-12T12:52:49.033Z,98360.75
2022-12-12T12:55:25.432Z,98361.97
2022-12-12T12:57:53.623Z,98360.06
2022-12-12T13:00:27.783Z,98360.97
2022-12-12T13:03:18.733Z,98357.41
2022-12-12T13:05:55.189Z,98362.56
2022-12-12T13:08:44.954Z,98361.97
2022-12-12T13:11:38.808Z,98366.16
2022-12-12T13:14:19.636Z,98382.00
2022-12-12T13:16:49.713Z,98378.41
2022-12-12T13:19:41.218Z,98383.69
2022-12-12T13:22:17.185Z,98392.31
2022-12-12T13:24:54.958Z,98394.88
2022-12-12T13:27:50.644Z,98382.72
2022-12-12T13:30:36.711Z,98387.25
2022-12-12T13:33:14.341Z,98383.63
2022-12-12T13:35:46.465Z,98386.34
2022-12-12T13:38:34.013Z,98387.25
2022-12-12T13:41:08.469Z,98395.88
2022-12-12T13:43:39.070Z,98395.84
2022-12-12T13:46:29.119Z,98401.78
2022-12-12T13:49:16.165Z,98407.97
2022-12-12T13:51:45.762Z,98410.56
2022-12-12T13:54:14.603Z,98414.13
2022-12-12T13:56:47.102Z,98402.81
2022-12-12T13:59:26.474Z,98411.41
2022-12-12T14:02:22.723Z,98419.28
2022-12-12T14:05:13.773Z,98408.84
2022-12-12T18:25:35.921Z,98558.22
2022-12-12T18:28:02.745Z,98559.81
2022-12-12T18:30:28.921Z,98564.84
2022-12-12T18:33:02.640Z,98559.50
2022-12-12T18:35:30.491Z,98564.44
2022-12-12T18:37:57.613Z,98576.41
2022-12-12T18:40:26.155Z,98573.59
2022-12-12T18:42:53.351Z,98578.63
2022-12-12T18:45:20.621Z,98571.53
2022-12-12T18:47:47.591Z,98576.63
2022-12-12T18:50:14.606Z,98586.94
2022-12-12T18:52:41.543Z,98577.28
2022-12-12T18:55:08.646Z,98584.16
2022-12-12T18:57:35.456Z,98587.59
2022-12-12T19:00:03.107Z,98586.72
2022-12-12T19:02:29.768Z,98601.34
2022-12-12T19:04:58.899Z,98597.84
2022-12-12T19:07:25.871Z,98597.78
2022-12-12T19:09:53.358Z,98604.69
2022-12-12T19:12:20.973Z,98610.69
2022-12-12T19:17:35.865Z,98621.06
2022-12-12T19:20:03.121Z,98615.03
2022-12-12T19:22:46.924Z,98625.44
2022-12-12T19:25:16.059Z,98634.09
2022-12-12T19:27:43.828Z,98628.13
2022-12-12T19:30:12.932Z,98632.47
2022-12-12T19:32:40.109Z,98641.13
2022-12-12T19:35:07.543Z,98631.72
2022-12-12T19:37:36.606Z,98633.44
2022-12-12T19:40:06.598Z,98629.03
2022-12-12T19:42:33.917Z,98635.97
2022-12-12T19:45:00.936Z,98637.75
2022-12-12T19:47:28.284Z,98642.06
2022-12-12T19:49:55.508Z,98642.81
2022-12-12T19:52:22.931Z,98640.97
2022-12-12T19:54:50.221Z,98649.53
2022-12-12T19:57:17.457Z,98640.72
2022-12-12T19:59:44.762Z,98646.59
2022-12-12T20:02:11.931Z,98641.34
2022-12-12T20:04:39.620Z,98643.78
2022-12-12T20:07:07.011Z,98635.06
2022-12-12T20:09:36.124Z,98640.19
2022-12-12T20:12:03.941Z,98636.72
2022-12-12T20:14:33.795Z,98640.97
2022-12-12T20:17:03.026Z,98643.47
2022-12-12T20:19:33.033Z,98646.25
2022-12-12T20:22:02.147Z,98654.78
2022-12-12T20:24:30.783Z,98656.53
2022-12-12T20:26:59.859Z,98651.34
2022-12-12T20:29:27.543Z,98647.16
2022-12-12T20:31:55.111Z,98654.28
2022-12-12T20:34:24.620Z,98659.59
2022-12-12T20:36:55.516Z,98656.97
2022-12-12T20:39:25.053Z,98664.09
2022-12-12T20:41:53.947Z,98671.00
2022-12-12T20:44:22.812Z,98670.97
2022-12-12T20:46:49.855Z,98666.66
2022-12-12T20:49:19.885Z,98671.88
2022-12-12T20:51:58.009Z,98672.88
2022-12-12T20:54:27.974Z,98673.78
2022-12-12T20:56:55.565Z,98674.78
2022-12-12T20:59:22.800Z,98677.44
2022-12-12T21:01:50.119Z,98683.59
2022-12-12T21:04:17.355Z,98675.00
2022-12-12T21:06:48.625Z,98684.59
2022-12-12T21:09:23.192Z,98677.72
2022-12-12T21:11:53.934Z,98687.25
2022-12-12T21:14:21.314Z,98689.03
2022-12-12T21:16:48.663Z,98693.44
2022-12-12T21:19:16.303Z,98689.16
2022-12-12T21:21:44.177Z,98702.19
2022-12-12T21:24:16.250Z,98700.56
2022-12-12T21:26:44.261Z,98692.81
2022-12-12T21:29:11.741Z,98694.50
2022-12-12T21:31:49.836Z,98691.91
2022-12-12T21:34:20.284Z,98696.25
2022-12-12T21:36:54.004Z,98702.28
2022-12-12T21:39:24.324Z,98705.72
2022-12-12T21:41:51.791Z,98708.28
2022-12-12T21:44:20.053Z,98712.59
2022-12-12T21:46:48.088Z,98707.44
2022-12-12T21:49:41.507Z,98705.78
2022-12-12T21:52:12.896Z,98709.34
2022-12-12T21:54:40.279Z,98713.81
2022-12-12T21:57:08.273Z,98725.16
2022-12-12T21:59:37.784Z,98723.44
2022-12-12T22:02:06.536Z,98726.09
2022-12-12T22:04:33.516Z,98728.75
2022-12-12T22:07:00.662Z,98721.03
2022-12-12T22:09:28.054Z,98732.22
2022-12-12T22:12:02.915Z,98734.06
2022-12-12T22:14:31.525Z,98727.13
2022-12-12T22:16:59.094Z,98734.09
2022-12-12T22:19:26.447Z,98729.78
2022-12-12T22:21:53.713Z,98734.97
2022-12-12T22:24:20.875Z,98740.09
2022-12-12T22:26:50.283Z,98740.97
2022-12-12T22:29:19.433Z,98754.78
2022-12-12T22:31:50.100Z,98754.75
2022-12-12T22:34:20.977Z,98752.09
2022-12-12T22:36:48.840Z,98749.34
2022-12-12T22:39:19.921Z,98754.53
2022-12-12T22:41:47.048Z,98752.84
2022-12-12T22:44:19.791Z,98753.59
2022-12-12T22:46:49.181Z,98752.66
2022-12-12T22:49:22.882Z,98743.06
2022-12-12T22:51:50.359Z,98745.53
2022-12-12T22:54:17.991Z,98745.53
2022-12-12T22:56:45.530Z,98753.25
2022-12-12T22:59:14.264Z,98761.00
2022-12-12T23:01:42.616Z,98754.88
2022-12-12T23:04:13.065Z,98753.97
2022-12-12T23:06:41.417Z,98755.69
2022-12-12T23:09:17.913Z,98747.78
2022-12-12T23:11:45.464Z,98744.22
2022-12-12T23:14:15.916Z,98739.75
2022-12-12T23:16:44.444Z,98741.38
2022-12-12T23:19:14.507Z,98741.31
2022-12-12T23:21:41.888Z,98737.88
2022-12-12T23:24:09.544Z,98742.28
2022-12-12T23:26:37.530Z,98747.47
2022-12-12T23:29:08.302Z,98743.94
2022-12-12T23:31:37.730Z,98753.47
2022-12-12T23:34:08.629Z,98751.78
2022-12-12T23:36:36.006Z,98749.19
2022-12-12T23:39:06.591Z,98750.84
2022-12-12T23:41:35.478Z,98747.28
2022-12-12T23:44:03.267Z,98742.00
2022-12-12T23:46:33.858Z,98733.22
2022-12-12T23:49:20.746Z,98728.81
2022-12-12T23:51:52.757Z,98725.25
2022-12-12T23:54:35.193Z,98714.84
2022-12-12T23:57:03.163Z,98702.72
2022-12-12T23:59:31.551Z,98692.38
